Time;durP1;ratioP1;P1;durP2;ratioP2;P2;SDS_P1;SDS_P2;PMS_P1;PMS_P2;Temp;Humidity;BMP_temperature;BMP_pressure;BME280_temperature;BME280_humidity;BME280_pressure;Samples;Min_cycle;Max_cycle;Signal;HPM_P1;HPM_P2
2021/09/23 00:00:33;;;;;;;63.13;40.63;;;;;;;16.88;56.29;102198.66;10588560;28;20036;-79
2021/09/23 00:05:33;;;;;;;53.40;38.05;;;;;;;16.91;56.54;102217.38;10587725;28;20082;-78
2021/09/23 00:10:35;;;;;;;63.40;39.45;;;;;;;15.87;56.09;102043.59;10569283;28;20024;-79
2021/09/23 00:15:36;;;;;;;59.00;40.20;;;;;;;16.95;56.48;102221.41;10553255;28;20459;-78
2021/09/23 00:20:37;;;;;;;62.90;34.08;;;;;;;16.74;57.36;102182.19;10570678;28;20035;-78
2021/09/23 00:25:38;;;;;;;55.80;34.25;;;;;;;17.04;56.73;102208.34;10553525;28;20093;-78
2021/09/23 00:30:38;;;;;;;53.58;34.75;;;;;;;16.06;57.16;102050.16;10569930;28;20376;-78
2021/09/23 00:35:39;;;;;;;49.60;31.23;;;;;;;16.56;57.28;102118.19;10569259;28;20028;-78
2021/09/23 00:40:39;;;;;;;46.10;30.17;;;;;;;17.15;56.87;102203.13;10569148;28;20181;-79
2021/09/23 00:45:40;;;;;;;40.22;29.10;;;;;;;16.82;57.45;102167.53;10587231;28;20039;-78
2021/09/23 00:50:40;;;;;;;50.17;30.27;;;;;;;16.97;57.21;102186.47;10586181;28;20455;-78
2021/09/23 00:55:41;;;;;;;41.53;27.58;;;;;;;17.07;57.92;102194.25;10568765;28;20126;-78
2021/09/23 01:00:41;;;;;;;36.38;26.25;;;;;;;17.08;57.81;102183.13;10586413;28;20039;-78
2021/09/23 01:05:41;;;;;;;35.88;25.38;;;;;;;17.11;58.20;102181.88;10585670;28;20309;-78
2021/09/23 01:10:42;;;;;;;39.83;25.90;;;;;;;17.12;58.04;102183.53;10567991;28;20053;-78
2021/09/23 01:15:42;;;;;;;36.92;26.90;;;;;;;17.15;58.43;102178.47;10586181;28;20042;-79
2021/09/23 01:20:44;;;;;;;37.03;25.92;;;;;;;17.18;58.67;102169.84;10585908;28;20123;-78
2021/09/23 01:25:44;;;;;;;38.47;26.45;;;;;;;16.98;57.70;102133.44;10585146;28;20031;-78
2021/09/23 01:30:45;;;;;;;38.38;26.55;;;;;;;16.38;59.77;102023.94;10567373;28;20126;-78
2021/09/23 01:35:45;;;;;;;42.15;27.33;;;;;;;17.16;60.29;102125.41;10567105;28;20055;-79
2021/09/23 01:40:45;;;;;;;41.47;24.58;;;;;;;17.66;59.79;102158.63;10566205;28;20069;-78
2021/09/23 01:45:46;;;;;;;31.70;24.77;;;;;;;16.61;59.89;101952.44;10585466;28;20036;-78
2021/09/23 01:50:46;;;;;;;35.22;26.65;;;;;;;16.91;59.95;101977.47;10550413;28;20076;-78
2021/09/23 01:55:46;;;;;;;36.72;25.85;;;;;;;18.15;59.55;102139.94;10584083;28;20108;-79
2021/09/23 02:00:47;;;;;;;34.78;24.38;;;;;;;17.91;60.79;102127.00;10566412;28;20035;-78
2021/09/23 02:05:47;;;;;;;38.05;25.50;;;;;;;17.77;60.90;102113.34;10584611;28;20048;-78
2021/09/23 02:10:48;;;;;;;45.78;24.75;;;;;;;17.60;61.68;102103.88;10585245;28;20032;-78
2021/09/23 02:15:48;;;;;;;41.67;27.90;;;;;;;17.50;63.03;102076.09;10584846;28;20059;-78
2021/09/23 02:20:48;;;;;;;47.17;30.40;;;;;;;17.52;63.39;102074.81;10548656;28;20383;-78
2021/09/23 02:25:49;;;;;;;42.05;29.88;;;;;;;17.51;63.29;102059.44;10584877;28;20039;-78
2021/09/23 02:30:49;;;;;;;40.67;28.70;;;;;;;16.57;63.49;101912.06;10585309;28;20035;-78
2021/09/23 02:35:50;;;;;;;45.00;27.17;;;;;;;17.53;62.75;102043.63;10582832;28;20174;-78
2021/09/23 02:40:50;;;;;;;48.60;32.85;;;;;;;17.36;64.67;102043.28;10550470;28;20063;-79
2021/09/23 02:45:50;;;;;;;42.22;29.35;;;;;;;17.47;63.68;102036.28;10583336;28;20089;-78
2021/09/23 02:50:51;;;;;;;51.63;33.30;;;;;;;17.46;63.88;102022.81;10582641;28;20122;-78
2021/09/23 02:55:51;;;;;;;56.83;37.53;;;;;;;17.16;63.73;101983.09;10585511;28;20390;-78
2021/09/23 03:00:51;;;;;;;53.70;35.42;;;;;;;17.46;64.19;102026.41;10556053;28;20081;-78
2021/09/23 03:05:52;;;;;;;53.55;36.78;;;;;;;17.47;64.00;102024.50;10590308;28;20059;-79
2021/09/23 03:10:52;;;;;;;54.30;36.88;;;;;;;17.25;64.29;101980.97;10590236;28;20039;-78
2021/09/23 03:15:53;;;;;;;58.90;36.30;;;;;;;17.55;64.67;102027.84;10572155;28;20038;-78
2021/09/23 03:20:53;;;;;;;63.35;37.35;;;;;;;17.70;65.09;102043.16;10590318;28;20580;-78
2021/09/23 03:25:54;;;;;;;62.00;38.60;;;;;;;17.69;64.69;101995.75;10589616;28;20495;-78
2021/09/23 03:30:54;;;;;;;61.13;38.47;;;;;;;17.69;64.72;101981.22;10571563;28;20123;-78
2021/09/23 03:35:54;;;;;;;65.85;41.40;;;;;;;17.01;64.75;101850.31;10590237;28;20040;-78
2021/09/23 03:40:55;;;;;;;74.43;41.88;;;;;;;17.99;64.86;101978.75;10553612;28;20464;-78
2021/09/23 03:45:58;;;;;;;59.50;40.20;;;;;;;18.03;65.19;101989.06;10588699;28;20031;-79
2021/09/23 03:50:58;;;;;;;51.78;38.10;;;;;;;17.84;64.56;101971.69;10590713;28;20383;-78
2021/09/23 03:55:58;;;;;;;64.95;40.72;;;;;;;16.98;65.06;101826.97;10571116;28;20040;-79
2021/09/23 04:00:59;;;;;;;69.03;43.28;;;;;;;18.17;64.95;102014.47;10572612;28;20032;-79
2021/09/23 04:05:59;;;;;;;65.28;43.63;;;;;;;18.26;64.76;102012.31;10553352;28;20083;-78
2021/09/23 04:11:00;;;;;;;73.20;43.20;;;;;;;18.33;64.68;102015.84;10587771;28;20059;-78
2021/09/23 04:16:00;;;;;;;67.78;42.53;;;;;;;17.91;64.69;101936.00;10588125;28;20036;-78
2021/09/23 04:21:00;;;;;;;66.60;40.30;;;;;;;17.60;64.47;101901.19;10587163;28;20036;-79
2021/09/23 04:26:01;;;;;;;76.72;41.83;;;;;;;18.20;63.55;101952.88;10569236;28;20463;-78
2021/09/23 04:31:01;;;;;;;65.97;43.70;;;;;;;17.38;63.75;101821.25;10519243;28;20054;-76
2021/09/23 04:36:02;;;;;;;71.22;45.47;;;;;;;17.98;63.79;101911.28;10569110;28;20062;-77
2021/09/23 04:41:02;;;;;;;53.00;37.22;;;;;;;18.08;63.89;101952.75;10568693;28;20027;-78
2021/09/23 04:46:03;;;;;;;63.70;39.15;;;;;;;16.79;64.04;101740.34;10586767;28;20039;-77
2021/09/23 04:51:03;;;;;;;61.55;42.72;;;;;;;17.87;64.29;101918.34;10569092;28;20032;-78
2021/09/23 04:56:04;;;;;;;62.78;40.63;;;;;;;17.12;64.07;101762.88;10584886;28;20493;-77
2021/09/23 05:01:04;;;;;;;65.68;40.80;;;;;;;17.15;64.33;101769.81;10560363;28;20032;-78
2021/09/23 05:06:05;;;;;;;55.30;37.70;;;;;;;17.49;64.67;101838.91;10508985;28;20476;-78
2021/09/23 05:11:06;;;;;;;54.35;41.20;;;;;;;17.79;64.12;101852.84;10543280;28;20055;-79
2021/09/23 05:16:06;;;;;;;59.90;40.15;;;;;;;18.07;64.02;101893.50;10543952;28;20122;-79
2021/09/23 05:21:06;;;;;;;57.67;33.78;;;;;;;17.44;63.55;101787.53;10543361;28;20468;-79
2021/09/23 05:26:07;;;;;;;42.13;29.80;;;;;;;18.02;64.28;101887.84;10508945;28;20047;-79
2021/09/23 05:31:07;;;;;;;38.80;26.95;;;;;;;18.19;64.25;101867.06;10526004;28;20499;-79
2021/09/23 05:36:08;;;;;;;40.13;24.98;;;;;;;18.28;64.64;101878.56;10542219;28;20051;-79
2021/09/23 05:41:08;;;;;;;29.48;22.05;;;;;;;18.51;63.97;101876.03;10541659;28;20032;-79
2021/09/23 05:46:09;;;;;;;27.25;19.60;;;;;;;18.62;63.48;101884.56;10542685;28;20048;-79
2021/09/23 05:51:09;;;;;;;23.98;14.57;;;;;;;18.48;63.24;101878.38;10542103;28;20028;-79
2021/09/23 05:56:09;;;;;;;15.82;10.25;;;;;;;17.62;64.96;101753.91;10541578;28;20044;-79
2021/09/23 06:01:10;;;;;;;11.20;8.68;;;;;;;18.48;64.08;101887.44;10541919;28;20059;-79
2021/09/23 06:06:10;;;;;;;18.50;8.65;;;;;;;18.44;63.18;101849.72;10489552;28;20064;-79
2021/09/23 06:11:11;;;;;;;11.55;7.10;;;;;;;18.94;62.31;101888.03;10521876;28;20052;-79
2021/09/23 06:16:11;;;;;;;6.90;6.20;;;;;;;19.57;61.49;101889.56;10540292;28;20499;-79
2021/09/23 06:21:12;;;;;;;10.30;7.88;;;;;;;19.43;60.53;101848.53;10505923;28;20116;-79
2021/09/23 06:26:12;;;;;;;9.35;5.85;;;;;;;19.01;60.53;101806.44;10522624;28;20067;-79
2021/09/23 06:31:12;;;;;;;14.60;7.53;;;;;;;19.74;60.10;101885.91;10505710;28;20463;-79
2021/09/23 06:36:13;;;;;;;13.13;6.38;;;;;;;19.20;59.79;101772.38;10540408;28;20044;-79
2021/09/23 06:41:13;;;;;;;14.63;6.95;;;;;;;20.14;59.36;101887.22;10522398;28;20078;-79
2021/09/23 06:46:14;;;;;;;9.73;6.32;;;;;;;20.38;58.29;101869.63;10522949;28;20039;-80
2021/09/23 06:51:14;;;;;;;9.50;6.45;;;;;;;20.75;57.84;101868.56;10506282;28;20032;-79
2021/09/23 06:56:15;;;;;;;14.15;5.57;;;;;;;20.59;56.14;101758.16;10540076;28;20471;-79
2021/09/23 07:01:15;;;;;;;5.57;4.90;;;;;;;20.48;56.31;101821.41;10522114;28;20036;-80
2021/09/23 07:06:16;;;;;;;7.38;6.30;;;;;;;20.55;56.66;101849.66;10521389;28;20395;-79
2021/09/23 07:11:16;;;;;;;11.77;4.57;;;;;;;20.86;56.55;101838.25;10504774;28;20036;-79
2021/09/23 07:16:17;;;;;;;10.27;3.92;;;;;;;21.36;55.30;101837.63;10504669;28;20054;-79
2021/09/23 07:21:17;;;;;;;6.93;4.00;;;;;;;21.36;54.04;101800.97;10542048;28;20119;-80
2021/09/23 07:26:19;;;;;;;4.18;3.65;;;;;;;22.19;53.24;101818.66;10524342;28;20032;-79
2021/09/23 07:31:19;;;;;;;6.85;3.67;;;;;;;22.26;52.58;101813.78;10539305;28;20051;-80
2021/09/23 07:36:20;;;;;;;5.20;3.67;;;;;;;22.40;52.95;101813.41;10539789;28;20043;-80
2021/09/23 07:41:20;;;;;;;9.15;3.90;;;;;;;22.00;52.46;101737.22;10523251;28;20102;-80
2021/09/23 07:46:21;;;;;;;10.00;4.25;;;;;;;21.81;52.73;101761.47;10548865;28;20062;-80
2021/09/23 07:51:21;;;;;;;5.97;4.70;;;;;;;23.29;50.96;101799.31;10550682;28;20141;-80
2021/09/23 07:56:21;;;;;;;9.80;5.03;;;;;;;23.44;50.37;101805.00;10546766;28;20070;-79
2021/09/23 08:01:22;;;;;;;4.38;3.53;;;;;;;24.11;47.63;101692.13;10536291;28;20118;-79
2021/09/23 08:06:22;;;;;;;11.43;3.78;;;;;;;24.57;46.05;101814.22;10514342;28;20059;-80
2021/09/23 08:11:24;;;;;;;17.67;3.38;;;;;;;23.83;48.20;101846.31;10547510;28;20120;-80
2021/09/23 08:16:24;;;;;;;3.88;3.35;;;;;;;23.26;48.77;101833.03;10528822;28;20029;-80
2021/09/23 08:21:24;;;;;;;8.57;3.60;;;;;;;22.73;49.26;101845.63;10546065;28;20069;-80
2021/09/23 08:26:25;;;;;;;7.00;3.45;;;;;;;22.25;50.69;101853.50;10511406;28;20535;-80
2021/09/23 08:31:25;;;;;;;3.35;2.45;;;;;;;21.23;50.40;101693.81;10546205;28;20057;-80
2021/09/23 08:36:26;;;;;;;3.58;3.22;;;;;;;22.40;49.66;101783.06;10526544;28;20123;-79
2021/09/23 08:41:26;;;;;;;3.53;2.72;;;;;;;22.10;48.96;101745.66;10526415;28;20036;-80
2021/09/23 08:46:31;;;;;;;7.32;2.65;;;;;;;22.68;48.65;101870.41;10526687;28;20124;-80
2021/09/23 08:51:31;;;;;;;3.42;2.35;;;;;;;20.66;49.63;101610.22;10511881;28;20031;-80
2021/09/23 08:56:32;;;;;;;10.05;2.05;;;;;;;22.28;50.26;101858.53;10510023;28;20487;-80
2021/09/23 09:01:40;;;;;;;7.18;3.70;;;;;;;22.28;49.84;101832.84;10510140;28;20115;-80
2021/09/23 09:06:56;;;;;;;2.53;2.30;;;;;;;24.05;46.93;101837.09;10510319;28;20056;-78
2021/09/23 09:11:56;;;;;;;2.40;2.07;;;;;;;24.06;45.73;101858.16;10509248;28;20051;-79
2021/09/23 09:17:02;;;;;;;2.47;2.22;;;;;;;21.85;45.95;101483.31;10516599;28;20035;-80
2021/09/23 09:22:10;;;;;;;7.60;3.47;;;;;;;23.60;46.40;101830.88;10526626;28;20101;-80
2021/09/23 09:27:33;;;;;;;6.47;3.28;;;;;;;23.69;46.71;101836.81;10526489;28;20123;-80
2021/09/23 09:32:38;;;;;;;8.75;2.30;;;;;;;23.24;46.64;101848.22;10542637;28;20396;-80
2021/09/23 09:37:40;;;;;;;2.13;2.03;;;;;;;22.34;47.72;101840.13;10523535;28;20044;-80
2021/09/23 09:42:42;;;;;;;9.75;3.30;;;;;;;22.57;47.60;101863.91;10524060;28;20062;-81
2021/09/23 09:47:43;;;;;;;9.77;3.05;;;;;;;22.36;47.79;101839.84;10541912;28;20047;-80
2021/09/23 09:52:50;;;;;;;3.63;2.38;;;;;;;21.28;48.15;101677.34;10523081;28;20502;-80
2021/09/23 09:57:51;;;;;;;3.65;3.08;;;;;;;21.94;48.35;101799.75;10541563;28;20408;-80
2021/09/23 10:02:51;;;;;;;11.88;3.05;;;;;;;22.26;48.31;101863.44;10505853;28;20058;-80
2021/09/23 10:07:53;;;;;;;17.08;4.03;;;;;;;23.17;47.76;101867.75;10540842;28;20201;-79
2021/09/23 10:12:55;;;;;;;5.88;3.50;;;;;;;23.36;45.77;101707.94;10506793;28;20025;-80
2021/09/23 10:18:00;;;;;;;3.40;3.10;;;;;;;23.39;44.80;101746.94;10540789;28;20032;-80
2021/09/23 10:23:00;;;;;;;7.43;3.47;;;;;;;23.99;45.14;101819.59;10489719;28;20028;-80
2021/09/23 10:28:02;;;;;;;5.43;2.78;;;;;;;25.01;43.93;101758.38;10540558;28;20047;-81
2021/09/23 10:33:03;;;;;;;7.53;2.70;;;;;;;26.21;41.04;101838.38;10522288;28;20117;-80
2021/09/23 10:38:05;;;;;;;3.75;2.38;;;;;;;26.82;40.19;101792.94;10506027;28;20032;-81
2021/09/23 10:43:14;;;;;;;4.18;2.65;;;;;;;27.01;39.04;101758.94;10521543;28;20028;-80
2021/09/23 10:48:14;;;;;;;8.98;2.92;;;;;;;27.31;38.44;101782.94;10540850;28;20024;-81
2021/09/23 10:53:15;;;;;;;17.05;3.75;;;;;;;27.43;38.15;101758.38;10523281;28;20093;-81
2021/09/23 10:58:20;;;;;;;10.48;2.53;;;;;;;27.11;37.64;101667.94;10489106;28;20147;-81
2021/09/23 11:03:20;;;;;;;5.45;2.33;;;;;;;27.65;37.94;101788.53;10521352;28;20036;-80
2021/09/23 11:08:21;;;;;;;4.80;1.65;;;;;;;27.30;38.95;101781.28;10522273;28;20052;-81
2021/09/23 11:13:21;;;;;;;2.75;2.28;;;;;;;27.16;39.14;101758.03;10504813;28;20032;-80
2021/09/23 11:18:22;;;;;;;1.73;1.63;;;;;;;26.44;40.33;101769.44;10493220;28;20113;-79
2021/09/23 11:23:23;;;;;;;5.22;1.92;;;;;;;27.34;39.62;101769.28;10547200;28;20491;-81
2021/09/23 11:28:23;;;;;;;7.55;2.92;;;;;;;27.94;38.66;101768.25;10528849;28;20494;-80
2021/09/23 11:33:24;;;;;;;3.83;2.13;;;;;;;27.24;39.17;101776.88;10547205;28;20080;-81
2021/09/23 11:38:24;;;;;;;2.28;1.70;;;;;;;25.96;41.55;101785.69;10529421;28;20043;-81
2021/09/23 11:43:31;;;;;;;2.35;1.52;;;;;;;24.88;43.87;101784.69;10546241;28;20058;-80
2021/09/23 11:48:35;;;;;;;6.43;2.42;;;;;;;23.83;45.72;101741.22;10512884;28;20044;-81
2021/09/23 11:53:37;;;;;;;3.53;2.97;;;;;;;22.91;47.73;101648.34;10527675;28;20066;-81
2021/09/23 11:58:41;;;;;;;3.78;3.10;;;;;;;24.13;47.49;101759.94;10546185;28;20075;-81
2021/09/23 12:03:42;;;;;;;13.70;2.17;;;;;;;24.74;46.42;101789.06;10545571;28;20038;-80
2021/09/23 12:08:43;;;;;;;7.60;3.15;;;;;;;22.83;46.32;101496.97;10485622;28;20514;-80
2021/09/23 12:13:44;;;;;;;4.05;2.55;;;;;;;24.77;46.22;101763.59;10503060;28;20029;-81
2021/09/23 12:18:46;;;;;;;9.75;2.28;;;;;;;24.70;46.24;101777.72;10469709;28;20033;-80
2021/09/23 12:23:52;;;;;;;6.70;3.88;;;;;;;24.59;47.17;101773.22;10469997;28;20024;-81
2021/09/23 12:29:01;;;;;;;13.93;3.17;;;;;;;23.98;47.38;101718.34;10501416;28;20445;-82
2021/09/23 12:34:12;;;;;;;5.72;2.65;;;;;;;24.21;47.40;101772.44;10486164;28;20055;-80
2021/09/23 12:39:17;;;;;;;2.90;2.70;;;;;;;24.11;47.52;101756.59;10467873;28;20083;-80
2021/09/23 12:44:22;;;;;;;5.05;3.17;;;;;;;24.05;47.92;101723.66;10503874;28;20502;-80
2021/09/23 12:49:22;;;;;;;3.40;2.28;;;;;;;25.01;46.43;101747.31;10472662;28;20024;-81
2021/09/23 12:54:24;;;;;;;3.22;2.35;;;;;;;25.08;46.13;101727.63;10487142;28;20044;-81
2021/09/23 12:59:24;;;;;;;2.03;1.90;;;;;;;24.80;45.90;101752.81;10484193;28;20472;-81
2021/09/23 13:04:25;;;;;;;1.75;1.15;;;;;;;24.02;47.17;101754.63;10501478;28;20032;-81
2021/09/23 13:09:25;;;;;;;3.72;2.15;;;;;;;24.40;47.06;101755.38;10498804;28;20165;-80
2021/09/23 13:14:26;;;;;;;6.72;2.78;;;;;;;24.15;47.60;101751.38;10526983;28;20028;-81
2021/09/23 13:19:26;;;;;;;16.15;3.47;;;;;;;23.50;47.18;101622.63;10508512;28;20436;-81
2021/09/23 13:24:27;;;;;;;8.10;3.15;;;;;;;23.71;46.43;101585.72;10543565;28;20049;-80
2021/09/23 13:29:27;;;;;;;5.03;3.08;;;;;;;24.97;46.24;101785.81;10544282;28;20054;-81
2021/09/23 13:34:28;;;;;;;8.23;2.97;;;;;;;25.04;46.03;101757.84;10524037;28;20048;-80
2021/09/23 13:39:28;;;;;;;2.80;2.60;;;;;;;25.02;45.37;101724.06;10541379;28;20040;-80
2021/09/23 13:44:28;;;;;;;3.75;2.75;;;;;;;24.66;45.17;101679.63;10541444;28;20097;-80
2021/09/23 13:49:29;;;;;;;2.92;2.72;;;;;;;25.38;45.28;101754.59;10523458;28;20032;-80
2021/09/23 13:54:29;;;;;;;6.47;3.80;;;;;;;25.18;45.22;101713.84;10523926;28;20102;-80
2021/09/23 13:59:29;;;;;;;4.30;2.95;;;;;;;25.06;44.95;101653.09;10541441;28;20044;-80
2021/09/23 14:04:30;;;;;;;3.40;2.53;;;;;;;25.76;44.67;101758.75;10507229;28;20453;-80
2021/09/23 14:09:33;;;;;;;3.75;2.75;;;;;;;24.62;44.44;101578.81;10541792;28;20083;-80
2021/09/23 14:14:33;;;;;;;5.65;2.83;;;;;;;25.36;44.66;101742.94;10541015;28;20028;-80
2021/09/23 14:19:35;;;;;;;9.65;3.17;;;;;;;25.01;45.48;101763.94;10522401;28;20032;-80
2021/09/23 14:24:35;;;;;;;2.90;2.55;;;;;;;24.76;45.65;101706.50;10522972;28;20383;-81
2021/09/23 14:29:41;;;;;;;10.20;3.65;;;;;;;24.35;45.08;101662.91;10506020;28;20131;-80
2021/09/23 14:34:42;;;;;;;3.05;2.60;;;;;;;24.40;44.74;101612.25;10523969;28;20032;-80
2021/09/23 14:39:44;;;;;;;11.05;3.42;;;;;;;24.94;45.26;101746.75;10522245;28;20207;-81
2021/09/23 14:44:45;;;;;;;4.30;2.85;;;;;;;24.15;45.78;101629.59;10522275;28;20020;-80
2021/09/23 14:49:45;;;;;;;4.55;2.75;;;;;;;23.65;46.41;101637.38;10542976;28;20474;-80
2021/09/23 14:54:46;;;;;;;11.85;3.55;;;;;;;23.90;47.54;101744.59;10549726;28;20035;-80
2021/09/23 14:59:46;;;;;;;3.00;2.35;;;;;;;23.65;48.45;101705.66;10532023;28;20454;-80
2021/09/23 15:04:47;;;;;;;9.45;3.72;;;;;;;22.80;48.62;101588.63;10531160;28;20036;-80
2021/09/23 15:09:47;;;;;;;5.35;2.35;;;;;;;23.55;48.48;101695.38;10512694;28;20079;-80
2021/09/23 15:14:48;;;;;;;6.38;3.25;;;;;;;23.08;49.07;101654.63;10547212;28;20131;-80
2021/09/23 15:19:48;;;;;;;6.95;3.15;;;;;;;22.80;50.73;101691.63;10529435;28;20039;-83
2021/09/23 15:24:48;;;;;;;6.53;3.03;;;;;;;22.82;51.17;101717.06;10547403;28;20494;-81
2021/09/23 15:29:49;;;;;;;5.07;2.85;;;;;;;22.05;50.91;101597.47;10529695;28;20046;-80
2021/09/23 15:34:51;;;;;;;13.00;3.33;;;;;;;22.62;52.18;101717.66;10529305;28;20066;-80
2021/09/23 15:39:51;;;;;;;5.93;2.67;;;;;;;22.62;52.28;101728.72;10529272;28;20043;-80
2021/09/23 15:44:52;;;;;;;9.23;2.85;;;;;;;22.29;52.87;101678.06;10547138;28;20036;-80
2021/09/23 15:49:52;;;;;;;7.90;3.67;;;;;;;22.43;53.28;101714.41;10528434;28;20060;-80
2021/09/23 15:54:53;;;;;;;6.38;4.13;;;;;;;22.41;53.83;101722.09;10528252;28;20051;-81
2021/09/23 15:59:53;;;;;;;13.55;3.95;;;;;;;21.55;53.91;101601.22;10528031;28;20119;-80
2021/09/23 16:04:54;;;;;;;3.60;2.83;;;;;;;22.08;54.66;101691.81;10546120;28;20036;-80
2021/09/23 16:09:54;;;;;;;5.55;3.45;;;;;;;22.13;54.57;101698.25;10510820;28;20056;-80
2021/09/23 16:14:55;;;;;;;4.53;3.42;;;;;;;22.02;55.06;101705.56;10545562;28;20471;-80
2021/09/23 16:19:56;;;;;;;5.18;3.28;;;;;;;21.73;55.01;101624.91;10527663;28;20032;-81
2021/09/23 16:24:56;;;;;;;5.85;4.20;;;;;;;22.01;55.12;101698.34;10545551;28;20028;-79
2021/09/23 16:29:56;;;;;;;6.95;3.45;;;;;;;20.84;56.04;101550.53;10527783;28;20085;-83
2021/09/23 16:34:57;;;;;;;7.15;3.28;;;;;;;21.82;55.94;101689.56;10526653;28;20032;-79
2021/09/23 16:39:57;;;;;;;16.35;4.72;;;;;;;21.95;55.67;101712.31;10509678;28;20032;-89
2021/09/23 16:44:58;;;;;;;9.70;3.88;;;;;;;21.68;55.65;101679.13;10545188;28;20028;-80
2021/09/23 16:49:58;;;;;;;15.43;4.40;;;;;;;21.74;55.90;101672.59;10546747;28;20040;-80
2021/09/23 16:54:58;;;;;;;5.20;3.92;;;;;;;21.68;56.06;101679.13;10526922;28;20055;-80
2021/09/23 16:59:59;;;;;;;5.32;3.97;;;;;;;21.50;56.49;101682.97;10526674;28;20068;-80
2021/09/23 17:05:00;;;;;;;3.28;2.97;;;;;;;20.78;56.36;101563.38;10508815;28;20392;-80
2021/09/23 17:10:00;;;;;;;3.47;3.17;;;;;;;21.31;57.62;101674.09;10525530;28;20052;-80
2021/09/23 17:15:06;;;;;;;11.73;3.60;;;;;;;21.29;56.71;101676.28;10524375;28;20051;-79
2021/09/23 17:20:08;;;;;;;11.00;3.53;;;;;;;20.49;56.79;101556.22;10508875;28;20032;-81
2021/09/23 17:25:09;;;;;;;14.95;3.83;;;;;;;20.85;57.65;101643.88;10542867;28;20036;-80
2021/09/23 17:30:10;;;;;;;10.13;4.30;;;;;;;20.35;57.62;101570.25;10525048;28;20071;-79
2021/09/23 17:35:11;;;;;;;7.65;4.20;;;;;;;21.19;58.31;101692.66;10524704;28;20043;-80
2021/09/23 17:40:18;;;;;;;8.88;4.63;;;;;;;20.95;58.12;101632.19;10577017;27;20374;-82
2021/09/23 17:45:18;;;;;;;7.55;4.45;;;;;;;20.81;58.49;101589.56;10577342;28;20071;-80
2021/09/23 17:50:19;;;;;;;8.98;3.15;;;;;;;20.56;58.59;101568.75;10577126;28;20040;-80
2021/09/23 17:55:20;;;;;;;8.75;4.22;;;;;;;21.61;58.00;101684.00;10576316;28;20035;-81
2021/09/23 18:00:21;;;;;;;12.30;4.85;;;;;;;21.28;57.14;101625.00;10576443;28;20032;-80
2021/09/23 18:05:21;;;;;;;5.10;4.25;;;;;;;21.68;57.54;101685.47;10577244;28;20063;-80
2021/09/23 18:10:21;;;;;;;6.82;4.35;;;;;;;21.72;57.98;101685.81;10577706;28;20039;-81
2021/09/23 18:15:22;;;;;;;14.77;5.38;;;;;;;21.85;57.58;101701.16;10578298;28;20119;-81
2021/09/23 18:20:23;;;;;;;15.55;5.75;;;;;;;20.75;57.44;101508.81;10576079;28;20059;-82
2021/09/23 18:25:24;;;;;;;5.35;4.00;;;;;;;21.57;57.85;101697.44;10576122;28;20034;-81
2021/09/23 18:30:25;;;;;;;14.63;5.00;;;;;;;21.12;58.53;101637.69;10575974;28;20437;-81
2021/09/23 18:35:25;;;;;;;12.13;5.25;;;;;;;20.64;58.69;101551.00;10576659;28;20032;-81
2021/09/23 18:40:25;;;;;;;9.07;4.78;;;;;;;21.66;58.70;101700.59;10577216;28;20036;-80
2021/09/23 18:45:27;;;;;;;11.20;4.07;;;;;;;21.50;58.61;101670.03;10482710;27;20520;-82
2021/09/23 18:50:28;;;;;;;8.57;4.97;;;;;;;21.85;58.57;101713.00;10434774;28;20037;-82
2021/09/23 18:55:29;;;;;;;8.05;4.63;;;;;;;21.91;58.59;101720.28;10421924;28;20044;-81
2021/09/23 19:00:29;;;;;;;10.57;4.38;;;;;;;21.39;58.35;101657.19;10422319;28;20537;-81
2021/09/23 19:05:30;;;;;;;6.88;3.10;;;;;;;21.61;56.19;101708.81;10421803;28;20067;-82
2021/09/23 19:10:30;;;;;;;14.48;2.63;;;;;;;21.55;55.13;101755.56;10421755;28;20041;-81
2021/09/23 19:15:31;;;;;;;6.45;2.80;;;;;;;21.28;54.27;101682.88;10421230;28;20469;-81
2021/09/23 19:20:31;;;;;;;10.27;2.13;;;;;;;21.38;53.68;101738.19;10422646;28;20076;-81
2021/09/23 19:25:32;;;;;;;3.70;2.28;;;;;;;21.30;53.00;101722.03;10420289;28;20048;-79
2021/09/23 19:30:32;;;;;;;2.35;2.15;;;;;;;21.17;52.48;101714.09;10421228;28;20093;-81
2021/09/23 19:35:32;;;;;;;10.93;2.40;;;;;;;21.40;52.36;101744.28;10436486;28;20041;-79
2021/09/23 19:40:33;;;;;;;4.97;2.53;;;;;;;20.83;52.33;101661.72;10420068;28;20067;-81
2021/09/23 19:45:35;;;;;;;3.00;1.60;;;;;;;21.50;52.04;101758.22;10436251;28;20064;-81
2021/09/23 19:50:35;;;;;;;4.15;3.20;;;;;;;21.38;52.21;101762.13;10419695;28;20102;-81
2021/09/23 19:55:38;;;;;;;10.20;2.42;;;;;;;20.79;52.01;101743.13;10434760;28;20029;-81
2021/09/23 20:00:39;;;;;;;12.32;1.83;;;;;;;21.14;52.03;101781.53;10433513;28;20126;-81
2021/09/23 20:05:39;;;;;;;1.90;1.52;;;;;;;21.28;51.86;101795.81;10434811;28;20042;-82
2021/09/23 20:10:40;;;;;;;10.93;2.35;;;;;;;21.04;51.69;101754.63;10401024;28;20128;-81
2021/09/23 20:15:40;;;;;;;4.13;1.85;;;;;;;20.44;51.14;101631.22;10434068;28;20025;-81
2021/09/23 20:20:41;;;;;;;3.55;2.40;;;;;;;20.81;51.01;101702.44;10417361;28;20064;-81
2021/09/23 20:25:41;;;;;;;4.75;1.30;;;;;;;21.35;50.94;101783.59;10418677;28;20042;-81
2021/09/23 20:30:42;;;;;;;2.95;1.70;;;;;;;20.55;50.90;101690.94;10417138;28;20099;-81
2021/09/23 20:35:43;;;;;;;8.32;2.63;;;;;;;21.44;50.82;101788.69;10417510;28;20393;-80
2021/09/23 20:40:43;;;;;;;4.70;1.20;;;;;;;20.33;50.87;101605.44;10434455;28;20041;-80
2021/09/23 20:45:43;;;;;;;7.00;1.08;;;;;;;21.40;50.93;101782.03;10417337;28;20029;-80
2021/09/23 20:50:44;;;;;;;2.38;1.73;;;;;;;20.94;50.67;101693.03;10418330;28;20041;-81
2021/09/23 20:55:46;;;;;;;11.70;5.63;;;;;;;21.37;50.89;101775.06;10421814;28;20111;-81
2021/09/23 21:00:50;;;;;;;2.70;2.50;;;;;;;20.81;51.11;101702.44;10416221;28;20037;-81
2021/09/23 21:05:51;;;;;;;2.20;1.65;;;;;;;21.18;51.16;101773.59;10418070;28;20045;-82
2021/09/23 21:11:10;;;;;;;3.15;2.55;;;;;;;20.94;51.49;101753.59;10416440;28;20511;-81
2021/09/23 21:16:29;;;;;;;5.40;2.63;;;;;;;21.02;51.15;101776.06;10417412;28;20033;-81
2021/09/23 21:21:30;;;;;;;3.25;2.50;;;;;;;20.93;51.48;101783.06;10440236;28;20041;-81
2021/09/23 21:26:31;;;;;;;4.95;2.20;;;;;;;19.78;51.42;101569.41;10439742;28;20061;-81
2021/09/23 21:31:31;;;;;;;6.28;2.45;;;;;;;21.01;51.36;101810.19;10457845;28;20492;-82
2021/09/23 21:36:32;;;;;;;7.68;2.33;;;;;;;20.93;51.33;101782.19;10439701;28;20392;-81
2021/09/23 21:41:32;;;;;;;6.03;2.00;;;;;;;20.86;51.48;101774.09;10456704;28;20044;-83
2021/09/23 21:46:32;;;;;;;1.92;1.38;;;;;;;20.82;51.27;101773.75;10456651;28;20073;-77
2021/09/23 21:51:33;;;;;;;1.33;1.23;;;;;;;20.81;51.34;101768.50;10457240;28;20043;-82
2021/09/23 21:56:33;;;;;;;1.67;1.55;;;;;;;20.80;51.40;101783.31;10457233;28;20123;-81
2021/09/23 22:01:34;;;;;;;4.05;1.50;;;;;;;20.69;51.59;101785.03;10455876;28;20044;-80
2021/09/23 22:06:34;;;;;;;4.05;2.72;;;;;;;19.27;51.74;101567.19;10456687;28;20033;-81
2021/09/23 22:11:34;;;;;;;5.97;1.63;;;;;;;20.28;52.12;101753.88;10455351;28;20032;-80
2021/09/23 22:16:35;;;;;;;2.45;1.70;;;;;;;19.37;52.35;101626.13;10439513;28;20041;-81
2021/09/23 22:21:35;;;;;;;6.57;2.25;;;;;;;20.18;52.04;101754.47;10456889;28;20055;-81
2021/09/23 22:26:36;;;;;;;10.60;2.10;;;;;;;20.24;52.19;101747.19;10464471;28;20045;-80
2021/09/23 22:31:36;;;;;;;4.43;3.42;;;;;;;20.27;52.35;101754.97;10464405;28;20554;-80
2021/09/23 22:36:36;;;;;;;6.50;2.55;;;;;;;20.20;52.49;101763.34;10446512;28;20057;-80
2021/09/23 22:41:37;;;;;;;2.15;1.58;;;;;;;19.97;52.50;101755.09;10464237;28;20385;-80
2021/09/23 22:46:37;;;;;;;1.75;1.50;;;;;;;19.70;52.99;101758.31;10463602;28;20069;-80
2021/09/23 22:51:38;;;;;;;4.88;2.38;;;;;;;18.64;53.06;101611.69;10465726;28;20037;-80